Time;durP1;ratioP1;P1;durP2;ratioP2;P2;SDS_P1;SDS_P2;PMS_P1;PMS_P2;Temp;Humidity;BMP_temperature;BMP_pressure;BME280_temperature;BME280_humidity;BME280_pressure;Samples;Min_cycle;Max_cycle;Signal;HPM_P1;HPM_P2
2022/02/02 00:00:19;;;;;;;2.33;1.13;;;;;;;19.68;45.15;100140.94;4961418;28;20042;-63
2022/02/02 00:08:07;;;;;;;2.42;1.27;;;;;;;19.64;45.26;100152.13;4962193;28;20544;-63
2022/02/02 00:11:15;;;;;;;4.07;1.30;;;;;;;19.61;45.38;100148.09;4968057;28;20046;-65
2022/02/02 00:14:22;;;;;;;2.13;1.23;;;;;;;19.58;45.26;100145.88;4958139;28;20550;-63
2022/02/02 00:19:05;;;;;;;2.28;1.42;;;;;;;19.54;45.27;100132.25;4959857;28;20381;-62
2022/02/02 00:21:45;;;;;;;1.83;1.00;;;;;;;19.54;45.42;100118.25;4964589;28;20035;-63
2022/02/02 00:26:58;;;;;;;2.30;1.13;;;;;;;19.52;45.38;100121.09;4963232;28;20049;-63
2022/02/02 00:29:31;;;;;;;3.45;1.65;;;;;;;19.52;45.51;100123.72;4966819;28;20109;-63
2022/02/02 00:32:05;;;;;;;1.60;0.95;;;;;;;19.53;45.16;100108.69;4953564;28;20031;-63
2022/02/02 00:34:32;;;;;;;2.38;1.23;;;;;;;19.52;45.52;100109.72;4968306;28;20042;-63
2022/02/02 00:36:58;;;;;;;2.08;1.13;;;;;;;19.50;45.36;100104.59;4961231;28;20027;-63
2022/02/02 00:39:25;;;;;;;1.33;1.00;;;;;;;19.51;45.49;100100.16;4967544;28;20030;-63
2022/02/02 00:41:56;;;;;;;2.17;1.17;;;;;;;19.50;45.59;100101.16;4942504;28;20069;-63
2022/02/02 00:44:22;;;;;;;2.10;1.15;;;;;;;19.48;45.78;100104.00;4965911;28;20035;-63
2022/02/02 00:46:48;;;;;;;4.55;1.50;;;;;;;19.47;45.44;100098.94;4965198;28;20078;-63
2022/02/02 00:49:14;;;;;;;1.70;1.17;;;;;;;19.44;45.34;100100.16;4964126;28;20073;-63
2022/02/02 00:51:47;;;;;;;3.00;1.70;;;;;;;19.43;45.52;100098.53;4963213;28;20057;-64
2022/02/02 00:54:20;;;;;;;1.63;1.35;;;;;;;19.42;45.61;100104.03;4963815;28;20034;-63
2022/02/02 00:56:47;;;;;;;1.98;1.25;;;;;;;19.39;45.59;100097.34;4958627;28;20039;-63
2022/02/02 00:59:13;;;;;;;2.15;1.15;;;;;;;19.40;45.55;100095.50;4967631;28;20058;-63
2022/02/02 01:01:39;;;;;;;2.35;1.00;;;;;;;19.40;45.51;100083.13;4966166;28;20119;-62
2022/02/02 01:04:05;;;;;;;2.60;1.30;;;;;;;19.39;45.41;100081.50;4968367;28;20488;-63
2022/02/02 01:06:34;;;;;;;2.38;1.42;;;;;;;19.39;45.42;100060.34;4966517;28;20114;-64
2022/02/02 01:09:16;;;;;;;3.00;1.20;;;;;;;19.39;45.41;100064.84;4968638;28;20156;-63
2022/02/02 01:27:58;;;;;;;1.98;1.30;;;;;;;19.30;45.53;100058.19;4984222;28;20092;-63
2022/02/02 01:30:07;;;;;;;2.83;1.83;;;;;;;19.26;45.51;100055.16;4985420;28;20506;-64
2022/02/02 01:32:33;;;;;;;1.52;0.82;;;;;;;19.26;45.53;100060.44;4986127;28;20037;-63
2022/02/02 01:34:59;;;;;;;1.80;1.20;;;;;;;19.28;45.78;100045.19;4984927;28;20034;-63
2022/02/02 01:37:26;;;;;;;1.65;1.20;;;;;;;19.27;45.69;100048.88;4968098;28;20034;-64
2022/02/02 01:39:58;;;;;;;3.30;1.73;;;;;;;19.27;45.66;100056.78;4985477;28;20046;-65
2022/02/02 01:42:30;;;;;;;2.03;1.60;;;;;;;19.25;45.72;100045.63;4978122;28;20073;-63
2022/02/02 01:45:04;;;;;;;3.42;1.75;;;;;;;19.24;45.64;100025.50;4980612;28;20389;-63
2022/02/02 01:47:38;;;;;;;1.85;1.58;;;;;;;19.22;45.74;100028.38;4969766;28;20545;-64
2022/02/02 01:53:04;;;;;;;2.65;1.52;;;;;;;19.20;45.54;100030.41;4974786;28;20034;-63
2022/02/02 01:55:38;;;;;;;2.30;1.52;;;;;;;19.21;45.50;100021.47;4983256;28;20030;-64
2022/02/02 02:00:33;;;;;;;2.65;1.23;;;;;;;19.17;45.59;100022.09;4974104;28;20468;-63
2022/02/02 02:02:59;;;;;;;2.28;1.45;;;;;;;19.15;45.50;100029.41;4977069;28;20035;-63
2022/02/02 02:05:25;;;;;;;1.77;1.17;;;;;;;19.14;45.53;100020.69;4980735;28;20446;-63
2022/02/02 02:07:52;;;;;;;2.50;2.10;;;;;;;19.13;45.69;99976.00;4984370;28;20038;-64
2022/02/02 02:13:02;;;;;;;2.13;1.70;;;;;;;19.11;45.70;99978.03;4972436;23;20101;-45
2022/02/02 02:15:30;;;;;;;2.38;1.45;;;;;;;19.09;45.61;99982.72;4948553;29;20035;-47
2022/02/02 02:17:57;;;;;;;1.92;0.85;;;;;;;19.07;45.45;99964.47;4944609;28;20054;-47
2022/02/02 02:20:23;;;;;;;2.17;1.45;;;;;;;19.07;45.54;99961.00;4937694;28;20039;-49
2022/02/02 02:22:48;;;;;;;3.00;1.27;;;;;;;19.06;45.58;99980.50;4945980;28;20035;-46
2022/02/02 02:25:22;;;;;;;2.00;1.38;;;;;;;19.04;45.63;99966.72;4940193;28;20040;-45
2022/02/02 02:27:49;;;;;;;1.67;1.48;;;;;;;19.04;45.57;99969.34;4948975;28;20105;-47
2022/02/02 02:30:27;;;;;;;2.35;1.20;;;;;;;19.03;45.65;99959.81;4964773;28;20510;-51
2022/02/02 02:33:14;;;;;;;2.92;1.30;;;;;;;19.02;45.57;99964.28;4956930;28;20031;-50
2022/02/02 02:57:43;;;;;;;2.33;1.60;;;;;;;18.96;46.03;99962.47;4948177;28;20509;-45
2022/02/02 03:00:29;;;;;;;2.05;1.33;;;;;;;18.96;45.99;99948.47;4943091;29;20035;-44
2022/02/02 03:30:08;;;;;;;2.40;1.55;;;;;;;18.90;45.88;99935.09;4968607;28;20446;-43
2022/02/02 04:01:50;;;;;;;2.42;1.67;;;;;;;18.82;46.17;99953.84;4968396;28;20041;-43
2022/02/02 04:07:06;;;;;;;2.05;1.85;;;;;;;18.81;46.13;99965.41;4960656;28;20462;-48
2022/02/02 04:09:37;;;;;;;2.20;1.58;;;;;;;18.81;45.99;99959.31;4965119;28;20082;-44
2022/02/02 04:55:05;;;;;;;2.53;0.85;;;;;;;18.58;45.95;99936.03;4955963;28;20038;-50
2022/02/02 04:57:58;;;;;;;1.95;0.93;;;;;;;18.57;45.87;99934.41;4969204;28;20094;-49
2022/02/02 05:01:02;;;;;;;1.77;1.20;;;;;;;18.58;45.93;99936.03;4962087;28;20046;-48
2022/02/02 05:09:08;;;;;;;2.90;0.98;;;;;;;18.61;45.62;99917.19;4942921;28;20046;-42
2022/02/02 05:49:42;;;;;;;1.90;1.17;;;;;;;19.33;45.18;99915.97;4930343;29;20094;-46
2022/02/02 05:52:11;;;;;;;4.35;1.10;;;;;;;19.44;44.81;99915.25;4939684;29;20552;-52
2022/02/02 05:54:37;;;;;;;1.80;1.10;;;;;;;19.53;44.71;99936.94;4948963;29;20035;-41
2022/02/02 05:57:03;;;;;;;3.35;0.98;;;;;;;19.60;44.75;99935.06;4947701;29;20034;-42
2022/02/02 05:59:32;;;;;;;2.47;1.20;;;;;;;19.65;44.64;99937.88;4947857;29;20062;-46
2022/02/02 06:01:58;;;;;;;2.20;0.95;;;;;;;19.69;44.43;99954.09;4946386;29;20035;-46
2022/02/02 06:04:29;;;;;;;2.15;1.10;;;;;;;19.71;44.19;99942.31;4948806;29;20530;-49
2022/02/02 06:06:57;;;;;;;2.05;1.10;;;;;;;19.76;44.20;99939.00;4946931;29;20035;-39
2022/02/02 06:09:31;;;;;;;2.92;0.90;;;;;;;19.79;44.03;99934.09;4948604;29;20035;-41
2022/02/02 06:11:57;;;;;;;1.52;1.05;;;;;;;19.81;44.00;99937.34;4935427;28;20089;-49
2022/02/02 06:14:28;;;;;;;2.80;1.15;;;;;;;19.86;43.78;99939.28;4947954;28;20069;-45
2022/02/02 06:17:05;;;;;;;2.53;0.85;;;;;;;19.90;43.71;99921.97;4967866;28;20039;-43
2022/02/02 06:19:30;;;;;;;2.05;0.88;;;;;;;19.94;43.73;99932.94;4941564;28;20035;-45
2022/02/02 06:22:06;;;;;;;2.90;1.33;;;;;;;19.98;43.55;99923.53;4964524;28;20133;-45
2022/02/02 06:24:33;;;;;;;7.60;1.60;;;;;;;20.04;43.47;99938.53;4960007;28;20483;-45
2022/02/02 06:27:09;;;;;;;2.47;0.90;;;;;;;20.07;43.65;99923.03;4967014;28;20058;-55
2022/02/02 06:29:40;;;;;;;3.28;0.93;;;;;;;20.11;43.15;99910.19;4948898;28;20039;-43
2022/02/02 06:32:11;;;;;;;2.72;0.85;;;;;;;20.15;43.34;99927.22;4967851;28;20494;-47
2022/02/02 06:34:51;;;;;;;2.45;0.80;;;;;;;20.18;43.19;99932.88;4965638;28;20409;-45
2022/02/02 06:37:17;;;;;;;1.27;0.80;;;;;;;20.21;43.36;99937.75;4965520;28;20034;-45
2022/02/02 06:39:42;;;;;;;1.67;0.85;;;;;;;20.24;43.05;99951.56;4967812;28;20034;-43
2022/02/02 06:42:11;;;;;;;1.55;0.80;;;;;;;20.26;42.98;99944.22;4967177;28;20027;-45
2022/02/02 06:44:41;;;;;;;1.20;0.85;;;;;;;20.28;43.09;99942.16;4963204;28;20129;-49
2022/02/02 06:47:07;;;;;;;1.50;0.70;;;;;;;20.31;42.98;99947.81;4953931;28;20030;-43
2022/02/02 06:49:33;;;;;;;1.60;0.85;;;;;;;20.34;42.90;99947.34;4969628;28;20142;-52
2022/02/02 06:52:03;;;;;;;3.20;0.93;;;;;;;20.37;42.88;99954.03;4966189;28;20030;-52
2022/02/02 06:55:02;;;;;;;2.15;1.20;;;;;;;20.39;42.91;99966.03;4969211;28;20026;-51
2022/02/02 06:58:23;;;;;;;2.92;1.10;;;;;;;20.40;42.66;99972.97;4961540;28;20042;-46
2022/02/02 07:01:03;;;;;;;1.55;0.88;;;;;;;20.43;43.00;99980.44;4960606;28;20395;-42
2022/02/02 07:04:00;;;;;;;1.33;0.90;;;;;;;20.45;42.70;99977.59;4951719;28;20039;-47
2022/02/02 07:20:05;;;;;;;1.70;1.00;;;;;;;20.48;42.78;100012.34;4971104;28;20034;-53
2022/02/02 07:27:45;;;;;;;2.42;1.02;;;;;;;20.48;42.94;100014.19;4949517;28;20035;-51
2022/02/02 07:32:51;;;;;;;3.10;0.95;;;;;;;20.46;42.88;100003.03;4945131;28;20047;-46
2022/02/02 07:35:28;;;;;;;2.70;1.13;;;;;;;20.47;42.84;100009.94;4960879;28;20032;-50
2022/02/02 07:38:09;;;;;;;2.90;1.00;;;;;;;20.52;43.15;100012.72;4962934;28;20035;-49
2022/02/02 07:40:40;;;;;;;6.97;1.15;;;;;;;20.53;43.40;100011.69;4963416;28;20055;-48
2022/02/02 07:43:08;;;;;;;1.65;1.00;;;;;;;20.51;43.37;99995.22;4949076;28;20043;-52
2022/02/02 07:45:35;;;;;;;69.75;11.77;;;;;;;20.52;43.79;99994.22;4951772;29;20059;-49
2022/02/02 07:48:04;;;;;;;128.43;19.20;;;;;;;20.48;43.95;99987.72;4940104;28;20027;-43
2022/02/02 07:50:34;;;;;;;638.22;124.78;;;;;;;20.46;44.86;99997.72;4931446;29;20055;-46
2022/02/02 07:53:08;;;;;;;432.00;84.25;;;;;;;20.47;46.09;100007.28;4936511;29;20035;-50
2022/02/02 07:55:36;;;;;;;243.75;48.33;;;;;;;20.46;46.36;100008.31;4948423;29;20031;-48
2022/02/02 07:58:02;;;;;;;195.77;36.50;;;;;;;20.45;45.94;100019.94;4947264;29;20027;-51
2022/02/02 08:00:30;;;;;;;150.55;29.10;;;;;;;20.45;45.62;100017.28;4950453;28;20057;-42
2022/02/02 08:03:07;;;;;;;138.48;26.42;;;;;;;20.47;45.69;100016.03;4923054;29;20044;-45
2022/02/02 08:05:42;;;;;;;117.07;24.10;;;;;;;20.50;45.63;100004.19;4929044;28;20866;-48
2022/02/02 08:08:25;;;;;;;100.28;21.02;;;;;;;20.47;45.96;100016.03;4935144;28;20130;-58
2022/02/02 08:10:51;;;;;;;104.55;21.60;;;;;;;20.42;45.92;100033.59;4956179;28;20032;-47
2022/02/02 08:13:23;;;;;;;92.28;18.70;;;;;;;20.33;45.83;100030.38;4931510;29;20143;-47
2022/02/02 08:15:59;;;;;;;80.55;16.52;;;;;;;20.28;45.69;100021.50;4930274;29;20031;-53
2022/02/02 08:18:24;;;;;;;73.15;15.15;;;;;;;20.25;45.60;100016.66;4947677;28;20385;-47
2022/02/02 08:20:50;;;;;;;64.32;13.30;;;;;;;20.20;45.49;100022.59;4948486;28;20093;-48
2022/02/02 08:23:15;;;;;;;61.10;13.07;;;;;;;20.16;45.27;100024.88;4947321;28;20061;-43
2022/02/02 08:25:43;;;;;;;66.07;15.27;;;;;;;20.14;45.31;100034.03;4941655;28;20155;-42
2022/02/02 08:28:09;;;;;;;59.85;12.52;;;;;;;20.14;45.76;100042.78;4930937;29;20035;-45
2022/02/02 08:30:35;;;;;;;63.97;14.07;;;;;;;20.20;45.89;100052.50;4960859;28;20039;-42
2022/02/02 08:33:03;;;;;;;53.30;12.38;;;;;;;20.19;45.83;100056.19;4948236;28;20031;-49
2022/02/02 08:35:40;;;;;;;68.72;12.35;;;;;;;20.18;45.46;100057.19;4948308;28;20041;-39
2022/02/02 08:43:30;;;;;;;;;;;;;;;20.06;45.22;100071.34;4942371;29;20051;-42
2022/02/02 08:46:00;;;;;;;31.83;9.27;;;;;;;20.08;45.18;100071.94;4932761;29;20314;-40
2022/02/02 08:48:27;;;;;;;45.38;9.52;;;;;;;20.07;44.88;100067.66;4932815;29;20035;-40
2022/02/02 08:51:04;;;;;;;43.80;10.15;;;;;;;20.07;44.96;100079.06;4932468;29;20067;-43
2022/02/02 09:01:35;;;;;;;46.63;9.15;;;;;;;19.97;44.49;100067.34;4940026;28;20090;-43
2022/02/02 09:06:45;;;;;;;38.80;8.02;;;;;;;19.93;44.33;100089.94;4942478;28;20115;-39
2022/02/02 09:09:15;;;;;;;40.25;8.65;;;;;;;19.91;44.36;100074.28;4939968;28;20441;-40
2022/02/02 09:25:20;;;;;;;25.15;5.80;;;;;;;19.79;43.86;100087.41;4963420;28;20049;-37
2022/02/02 09:35:58;;;;;;;19.92;6.10;;;;;;;19.67;44.09;100072.44;4955947;28;20050;-42
2022/02/02 09:38:24;;;;;;;23.40;6.25;;;;;;;19.67;44.16;100077.72;4949053;28;20514;-37
2022/02/02 09:43:25;;;;;;;18.75;5.10;;;;;;;19.67;44.04;100080.38;4966035;28;20039;-41
2022/02/02 09:45:58;;;;;;;15.75;4.95;;;;;;;19.71;44.07;100078.91;4960578;28;20022;-46
2022/02/02 09:48:43;;;;;;;13.63;4.50;;;;;;;19.70;44.13;100075.47;4949834;28;20035;-40
2022/02/02 09:51:13;;;;;;;13.35;4.45;;;;;;;19.71;44.40;100085.00;4965364;28;20039;-44
2022/02/02 09:53:47;;;;;;;18.75;4.80;;;;;;;19.73;44.76;100080.31;4945685;28;20152;-39
2022/02/02 09:59:25;;;;;;;17.80;4.90;;;;;;;19.70;45.07;100064.91;4966598;28;20398;-43
2022/02/02 10:03:00;;;;;;;19.02;4.47;;;;;;;19.65;45.45;100069.19;4949664;28;20593;-38
2022/02/02 10:08:12;;;;;;;13.20;4.38;;;;;;;19.64;45.18;100081.59;4965797;28;20143;-47
2022/02/02 10:15:43;;;;;;;17.13;4.38;;;;;;;19.64;44.83;100078.16;4959124;28;20046;-50
2022/02/02 10:18:29;;;;;;;14.63;4.32;;;;;;;19.63;44.89;100087.09;4961056;28;20070;-43
2022/02/02 10:20:55;;;;;;;12.05;4.25;;;;;;;19.61;45.07;100108.44;4962656;28;20403;-50
2022/02/02 10:23:26;;;;;;;10.30;3.35;;;;;;;19.60;45.04;100106.00;4959532;28;20113;-56
2022/02/02 10:25:57;;;;;;;9.43;3.38;;;;;;;19.58;45.04;100102.78;4942316;28;20090;-48
2022/02/02 10:28:28;;;;;;;13.95;3.60;;;;;;;19.57;45.15;100101.16;4939296;28;20133;-39
2022/02/02 10:31:01;;;;;;;14.80;3.30;;;;;;;19.54;44.97;100103.19;4942923;28;20031;-47
2022/02/02 10:33:28;;;;;;;11.00;2.92;;;;;;;19.52;45.02;100101.78;4945514;28;20038;-51
2022/02/02 10:35:59;;;;;;;13.35;4.15;;;;;;;19.51;45.33;100098.34;4963852;28;20493;-41
2022/02/02 10:38:30;;;;;;;12.45;3.95;;;;;;;19.49;45.35;100113.56;4942250;28;20039;-43
2022/02/02 10:41:15;;;;;;;12.15;3.70;;;;;;;19.49;45.19;100104.81;4960317;28;20459;-48
2022/02/02 10:43:56;;;;;;;9.27;3.80;;;;;;;19.45;45.25;100096.50;4960176;28;20463;-48
2022/02/02 10:51:50;;;;;;;8.52;2.67;;;;;;;19.47;45.37;100096.28;4963267;28;20089;-50
2022/02/02 10:54:25;;;;;;;7.32;2.30;;;;;;;19.46;45.24;100074.34;4963760;28;20045;-52
2022/02/02 10:57:34;;;;;;;9.73;2.83;;;;;;;19.43;45.34;100061.56;4941232;28;20056;-50
2022/02/02 11:07:54;;;;;;;11.57;3.47;;;;;;;19.38;45.06;100034.97;4963828;28;20057;-43
2022/02/02 11:10:21;;;;;;;12.02;3.05;;;;;;;19.36;45.16;100036.22;4944737;28;20121;-56
2022/02/02 11:12:48;;;;;;;8.90;2.60;;;;;;;19.35;45.18;100032.78;4956348;28;20050;-39
2022/02/02 11:15:40;;;;;;;7.60;2.58;;;;;;;19.32;45.35;100027.09;4927034;29;20020;-41
2022/02/02 11:18:26;;;;;;;8.88;2.53;;;;;;;19.29;45.17;100022.25;4930215;29;20443;-49
2022/02/02 11:20:52;;;;;;;8.98;2.35;;;;;;;19.30;45.13;100035.25;4946285;28;20039;-43
2022/02/02 11:23:19;;;;;;;9.00;2.55;;;;;;;19.31;45.13;100025.47;4927489;28;20028;-51
2022/02/02 11:25:55;;;;;;;8.70;2.60;;;;;;;19.27;45.12;100021.66;4926810;29;20070;-45
2022/02/02 11:28:30;;;;;;;8.05;2.17;;;;;;;19.27;45.14;100008.44;4948160;28;20035;-43
2022/02/02 11:31:05;;;;;;;7.03;2.13;;;;;;;19.25;45.00;100005.19;4947057;28;20530;-46
2022/02/02 11:34:02;;;;;;;7.40;2.88;;;;;;;19.22;45.05;100006.44;4924438;29;20034;-46
2022/02/02 11:36:38;;;;;;;;;;;;;;;19.14;45.42;100011.94;4949788;29;20046;-43
2022/02/02 11:39:09;;;;;;;6.78;2.50;;;;;;;19.15;45.19;100003.00;4945762;28;20397;-54
2022/02/02 11:41:54;;;;;;;9.25;2.15;;;;;;;19.18;45.03;99999.94;4928691;29;20074;-52
2022/02/02 11:44:33;;;;;;;6.32;2.10;;;;;;;19.17;45.47;99993.06;4931789;29;20027;-52
2022/02/02 11:50:02;;;;;;;9.20;2.22;;;;;;;19.22;45.94;100001.16;4946829;29;20083;-47
2022/02/02 11:52:37;;;;;;;8.30;2.13;;;;;;;19.21;46.56;100000.34;4944825;28;20434;-42
2022/02/02 11:55:12;;;;;;;10.38;2.17;;;;;;;19.23;47.38;99990.38;4948235;28;20039;-45
2022/02/02 11:57:54;;;;;;;10.53;2.70;;;;;;;19.25;48.39;100003.38;4946616;28;20042;-43
2022/02/02 12:57:45;;;;;;;13.18;4.72;;;;;;;19.71;53.19;99989.06;4962536;28;20053;-46
2022/02/02 13:00:21;;;;;;;19.40;5.35;;;;;;;19.69;51.83;99983.19;4948765;28;20386;-42
2022/02/02 13:02:47;;;;;;;17.20;4.35;;;;;;;19.71;51.48;99997.00;4966769;28;20449;-37
2022/02/02 13:05:14;;;;;;;9.02;4.20;;;;;;;19.70;51.35;99998.00;4967103;28;20033;-43
2022/02/02 13:07:42;;;;;;;16.00;4.03;;;;;;;19.69;51.19;100004.31;4965811;28;20665;-40
2022/02/02 13:10:10;;;;;;;11.23;4.30;;;;;;;19.68;50.78;100006.16;4966945;28;20027;-43
2022/02/02 13:15:34;;;;;;;9.52;4.20;;;;;;;19.64;50.66;100004.97;4962902;28;20104;-44
2022/02/02 13:18:23;;;;;;;12.93;5.68;;;;;;;19.60;50.02;100013.53;4949076;28;20441;-43
2022/02/02 13:26:21;;;;;;;9.85;5.03;;;;;;;19.54;49.66;100002.78;4959425;28;20093;-47
2022/02/02 13:31:46;;;;;;;;;;;;;;;19.39;48.74;99998.78;4966528;28;20047;-45
2022/02/02 13:59:05;;;;;;;8.90;3.05;;;;;;;19.35;49.45;100034.59;4925522;28;20062;-45
2022/02/02 14:33:30;;;;;;;4.90;1.92;;;;;;;19.26;48.43;100044.59;4980406;28;20409;-37
2022/02/02 14:36:04;;;;;;;5.45;2.03;;;;;;;19.28;48.42;100047.84;4980546;28;20034;-48
2022/02/02 14:42:09;;;;;;;4.40;1.70;;;;;;;19.24;48.23;100051.94;4985432;28;20048;-40
2022/02/02 14:44:37;;;;;;;4.05;1.65;;;;;;;19.22;48.23;100059.25;4984791;28;20038;-44
2022/02/02 14:47:08;;;;;;;4.18;1.98;;;;;;;19.20;48.12;100045.44;4984418;28;20100;-49
2022/02/02 15:28:13;;;;;;;4.05;1.65;;;;;;;19.06;47.87;100100.13;4850639;29;20029;-40
2022/02/02 15:33:21;;;;;;;2.45;1.50;;;;;;;19.06;47.90;100096.69;4851037;29;20041;-45
2022/02/02 15:35:49;;;;;;;3.20;1.33;;;;;;;19.06;47.87;100097.50;4850755;29;20049;-50
2022/02/02 15:38:23;;;;;;;7.15;1.48;;;;;;;19.04;47.77;100099.53;4836762;29;20079;-37
2022/02/02 15:40:53;;;;;;;3.85;1.38;;;;;;;19.03;47.71;100108.47;4836756;29;20125;-45
2022/02/02 16:02:20;;;;;;;3.28;1.08;;;;;;;18.92;47.96;100097.72;4985478;28;20050;-39
2022/02/02 16:04:46;;;;;;;3.72;1.67;;;;;;;18.89;47.87;100097.16;4969505;28;20038;-41
2022/02/02 16:07:22;;;;;;;6.65;1.40;;;;;;;18.90;47.73;100090.06;4984400;28;20118;-44
2022/02/02 16:09:57;;;;;;;4.68;1.17;;;;;;;18.89;47.72;100096.34;4968792;28;20435;-47
2022/02/02 16:12:30;;;;;;;3.75;1.63;;;;;;;18.92;47.62;100092.44;4987748;28;20054;-45
2022/02/02 16:15:15;;;;;;;7.78;1.52;;;;;;;18.93;47.53;100104.63;4968475;28;20050;-53
2022/02/02 16:36:35;;;;;;;7.55;1.30;;;;;;;19.43;46.12;100095.09;4977469;28;20801;-45
2022/02/02 16:39:10;;;;;;;4.88;0.75;;;;;;;19.50;45.94;100099.31;4988604;28;20034;-38
2022/02/02 16:44:20;;;;;;;5.28;1.02;;;;;;;19.67;45.51;100097.03;4985696;28;20429;-42
2022/02/02 16:46:46;;;;;;;5.25;1.15;;;;;;;19.75;45.41;100101.25;4980816;28;20034;-40
2022/02/02 16:49:12;;;;;;;1.65;0.85;;;;;;;19.78;44.87;100114.88;4961999;28;20113;-39
2022/02/02 16:51:39;;;;;;;1.95;0.77;;;;;;;19.83;44.33;100115.03;4968876;28;20041;-38
2022/02/02 16:54:08;;;;;;;2.28;0.60;;;;;;;19.87;44.05;100123.31;4958108;28;20022;-44
2022/02/02 17:34:55;;;;;;;3.20;0.60;;;;;;;20.37;44.68;100231.84;4887180;29;20109;-37
2022/02/02 17:40:25;;;;;;;5.65;0.68;;;;;;;20.43;44.69;100249.53;4867666;29;20088;-40
2022/02/02 18:20:50;;;;;;;4.88;0.70;;;;;;;20.37;44.77;100374.72;4902837;29;20773;-44
2022/02/02 18:26:15;;;;;;;2.45;0.40;;;;;;;20.34;44.86;100364.53;4897769;29;20051;-39
2022/02/02 18:47:02;;;;;;;1.75;0.50;;;;;;;20.39;44.66;100362.91;4990338;28;20033;-38
2022/02/02 18:57:12;;;;;;;2.92;0.60;;;;;;;20.40;44.53;100374.31;4989692;28;20259;-43
2022/02/02 19:07:32;;;;;;;2.75;0.80;;;;;;;20.31;44.93;100378.22;4990527;28;20049;-51
2022/02/02 19:31:06;;;;;;;3.05;1.08;;;;;;;20.70;49.86;100415.09;4988949;28;20061;-39
2022/02/02 19:52:19;;;;;;;5.68;3.85;;;;;;;20.72;58.18;100460.72;4963901;28;20047;-40
2022/02/02 20:03:18;;;;;;;3.65;0.93;;;;;;;20.33;49.95;100495.22;4954948;28;20050;-42
2022/02/02 20:05:59;;;;;;;2.38;0.73;;;;;;;20.30;49.46;100500.94;4978041;28;20112;-41
2022/02/02 20:11:05;;;;;;;6.55;1.13;;;;;;;20.27;49.37;100502.16;4988577;28;20041;-39
2022/02/02 20:13:31;;;;;;;5.20;1.30;;;;;;;20.29;49.83;100509.91;4983225;28;20391;-36
2022/02/02 20:15:56;;;;;;;6.15;1.13;;;;;;;20.29;49.65;100525.78;4948589;28;20037;-45
2022/02/02 20:18:26;;;;;;;7.82;1.40;;;;;;;20.27;49.53;100523.34;4980906;28;20030;-41
2022/02/02 20:20:53;;;;;;;3.47;1.00;;;;;;;20.25;49.30;100525.38;4981388;28;20086;-44
2022/02/02 20:23:19;;;;;;;3.53;1.33;;;;;;;20.24;49.04;100533.50;4963461;28;20041;-47
2022/02/02 20:25:50;;;;;;;3.53;1.08;;;;;;;20.23;49.07;100542.47;4978777;28;20099;-44
2022/02/02 20:28:15;;;;;;;8.07;1.25;;;;;;;20.20;49.21;100549.78;4965759;28;20034;-39
2022/02/02 20:30:41;;;;;;;5.15;1.25;;;;;;;20.18;49.19;100551.81;4965249;28;20037;-45
2022/02/02 20:33:07;;;;;;;3.95;1.10;;;;;;;20.17;48.95;100550.19;4978289;28;20116;-44
2022/02/02 20:35:33;;;;;;;4.50;0.73;;;;;;;20.16;49.07;100556.50;4982376;28;20222;-39
2022/02/02 20:37:59;;;;;;;4.47;1.25;;;;;;;20.15;48.99;100552.25;4961246;28;20219;-49
2022/02/02 20:40:26;;;;;;;4.15;0.95;;;;;;;20.15;48.75;100559.34;4981675;28;20538;-48
2022/02/02 21:02:51;;;;;;;19.52;4.88;;;;;;;20.27;56.18;100601.88;4980625;28;20468;-44
2022/02/02 21:07:25;;;;;;;16.88;5.10;;;;;;;20.29;58.86;100599.84;4978330;28;20038;-39
2022/02/02 21:10:01;;;;;;;16.80;5.47;;;;;;;20.31;60.77;100601.28;4960601;28;20049;-38
2022/02/02 21:15:15;;;;;;;16.55;5.20;;;;;;;20.25;59.89;100610.03;4979396;28;20077;-38
2022/02/02 21:17:42;;;;;;;14.35;4.82;;;;;;;20.24;58.91;100615.53;4958878;28;20201;-45
2022/02/02 21:20:16;;;;;;;11.13;4.50;;;;;;;20.21;58.61;100609.63;4961590;28;20490;-44
2022/02/02 21:22:51;;;;;;;14.15;4.90;;;;;;;20.18;58.58;100615.31;4961338;28;20128;-41
2022/02/02 21:27:58;;;;;;;8.82;4.00;;;;;;;20.16;57.96;100621.81;4975382;28;20038;-39
2022/02/02 21:30:25;;;;;;;9.95;4.28;;;;;;;20.14;57.68;100624.66;4976995;28;20554;-42
2022/02/02 21:32:51;;;;;;;14.50;4.95;;;;;;;20.14;57.66;100629.97;4982307;28;20053;-42
2022/02/02 21:35:17;;;;;;;11.82;4.78;;;;;;;20.12;57.23;100629.34;4981500;28;20565;-47
2022/02/02 21:37:47;;;;;;;13.35;4.63;;;;;;;20.12;57.50;100628.53;4982319;28;20033;-43
2022/02/02 21:40:27;;;;;;;10.75;4.57;;;;;;;20.09;57.24;100627.09;4985069;28;20714;-41
2022/02/02 21:42:55;;;;;;;9.65;3.67;;;;;;;20.08;57.02;100625.47;4973281;28;20509;-44
2022/02/02 21:45:21;;;;;;;10.48;3.25;;;;;;;20.06;56.77;100630.16;4983050;28;20038;-48
2022/02/02 21:47:46;;;;;;;6.88;3.30;;;;;;;20.04;56.37;100626.91;4986313;28;20036;-41
2022/02/02 21:50:16;;;;;;;13.65;3.55;;;;;;;20.02;56.30;100642.16;4983542;28;20030;-42
2022/02/02 21:52:42;;;;;;;11.00;3.65;;;;;;;19.99;56.24;100639.91;4964745;28;20180;-37
2022/02/02 21:55:09;;;;;;;9.38;3.35;;;;;;;20.00;56.59;100643.38;4985837;28;20041;-45
2022/02/02 21:57:35;;;;;;;7.88;3.28;;;;;;;19.98;56.67;100638.28;4983256;28;20041;-43
2022/02/02 22:00:04;;;;;;;6.68;2.53;;;;;;;19.97;56.47;100644.59;4985556;28;20450;-42
2022/02/02 22:02:32;;;;;;;12.55;3.85;;;;;;;19.96;56.32;100658.81;4980499;28;20078;-40
2022/02/02 22:05:02;;;;;;;10.13;3.50;;;;;;;19.95;56.42;100654.53;4967577;28;20038;-42
2022/02/02 22:07:27;;;;;;;6.32;2.63;;;;;;;19.95;56.11;100653.72;4984973;28;20443;-51
2022/02/02 22:09:56;;;;;;;10.32;3.53;;;;;;;19.95;56.36;100651.09;4985638;28;20070;-44
2022/02/02 22:12:23;;;;;;;8.15;3.47;;;;;;;19.95;56.73;100661.66;4965729;28;20489;-43
2022/02/02 22:14:51;;;;;;;6.50;3.03;;;;;;;19.95;56.90;100661.66;4980465;28;20030;-39
2022/02/02 22:17:17;;;;;;;7.43;3.67;;;;;;;19.95;56.72;100669.59;4962765;28;20037;-45
2022/02/02 22:19:43;;;;;;;12.85;3.53;;;;;;;19.95;56.52;100691.56;4975451;28;20449;-40
2022/02/02 22:22:09;;;;;;;8.05;3.75;;;;;;;19.96;57.20;100701.13;4964150;28;20109;-36
2022/02/02 22:24:37;;;;;;;9.52;4.05;;;;;;;19.96;57.02;100695.84;4980953;28;20451;-46
2022/02/02 22:27:03;;;;;;;8.52;4.95;;;;;;;19.96;57.30;100695.03;4964794;28;20128;-42
2022/02/02 22:29:28;;;;;;;10.15;3.92;;;;;;;19.94;57.86;100697.88;4979872;28;20034;-46
2022/02/02 22:31:54;;;;;;;8.00;4.07;;;;;;;19.92;58.46;100704.38;4985920;28;20030;-40
2022/02/02 22:34:19;;;;;;;6.72;3.90;;;;;;;19.90;58.42;100715.16;4988025;28;20034;-40
2022/02/02 22:36:45;;;;;;;9.13;3.85;;;;;;;19.89;58.20;100708.22;4995309;28;20041;-43
2022/02/02 22:39:11;;;;;;;7.07;3.80;;;;;;;19.90;57.86;100707.22;4985891;28;20042;-49
2022/02/02 22:41:36;;;;;;;7.13;3.40;;;;;;;19.89;57.01;100711.69;4987908;28;20034;-40
2022/02/02 22:44:08;;;;;;;11.10;4.18;;;;;;;19.88;56.67;100710.06;4985686;28;20037;-52
2022/02/02 22:46:35;;;;;;;7.00;3.15;;;;;;;19.87;56.63;100702.31;4961332;28;20128;-39
2022/02/02 22:49:01;;;;;;;10.18;4.35;;;;;;;19.87;56.41;100713.72;4980315;28;20792;-41
2022/02/02 22:51:29;;;;;;;3.83;2.80;;;;;;;19.83;54.82;100719.63;4985995;28;20038;-37
2022/02/02 22:53:56;;;;;;;5.15;2.38;;;;;;;19.82;54.17;100720.63;4964423;28;20565;-48
2022/02/02 22:56:21;;;;;;;4.47;2.00;;;;;;;19.78;53.56;100730.78;4955406;28;20038;-47
2022/02/02 22:58:49;;;;;;;5.18;2.38;;;;;;;19.76;53.09;100742.56;4983389;28;20038;-41
2022/02/02 23:01:15;;;;;;;9.95;3.05;;;;;;;19.73;52.59;100748.25;4984252;28;20034;-37
2022/02/02 23:03:41;;;;;;;4.80;1.95;;;;;;;19.71;52.31;100750.28;4973913;28;20039;-42
2022/02/02 23:06:06;;;;;;;14.18;2.20;;;;;;;19.67;51.88;100749.03;4983542;28;20022;-43
2022/02/02 23:08:32;;;;;;;4.65;1.63;;;;;;;19.66;51.71;100752.69;4982792;28;20061;-42
2022/02/02 23:10:59;;;;;;;5.07;2.13;;;;;;;19.64;51.56;100749.44;4983361;28;20340;-43
2022/02/02 23:13:24;;;;;;;6.72;2.08;;;;;;;19.63;51.37;100748.63;4970699;28;20562;-44
2022/02/02 23:18:25;;;;;;;4.18;1.55;;;;;;;19.62;50.73;100764.66;4986447;28;20121;-42
2022/02/02 23:20:57;;;;;;;7.25;2.40;;;;;;;19.61;50.95;100763.03;4967184;28;20034;-45